sensor_id;sensor_type;location;lat;lon;timestamp;pressure;altitude;pressure_sealevel;temperature;humidity
75991;BME280;64673;52.276;10.560;2023-05-07T00:00:36;101217.00;;;9.62;85.56
75991;BME280;64673;52.276;10.560;2023-05-07T00:03:02;101216.59;;;9.70;85.68
75991;BME280;64673;52.276;10.560;2023-05-07T00:05:28;101211.19;;;9.70;86.12
75991;BME280;64673;52.276;10.560;2023-05-07T00:07:53;101219.75;;;9.67;86.08
75991;BME280;64673;52.276;10.560;2023-05-07T00:10:19;101218.28;;;9.76;85.30
75991;BME280;64673;52.276;10.560;2023-05-07T00:12:44;101220.09;;;9.70;85.94
75991;BME280;64673;52.276;10.560;2023-05-07T00:15:10;101213.94;;;9.75;84.64
75991;BME280;64673;52.276;10.560;2023-05-07T00:17:36;101222.03;;;9.75;86.03
75991;BME280;64673;52.276;10.560;2023-05-07T00:20:03;101222.44;;;9.83;85.63
75991;BME280;64673;52.276;10.560;2023-05-07T00:22:29;101234.28;;;9.66;86.45
75991;BME280;64673;52.276;10.560;2023-05-07T00:24:55;101236.06;;;9.77;85.50
75991;BME280;64673;52.276;10.560;2023-05-07T00:27:22;101229.03;;;9.76;85.09
75991;BME280;64673;52.276;10.560;2023-05-07T00:29:47;101229.56;;;9.73;85.89
75991;BME280;64673;52.276;10.560;2023-05-07T00:32:15;101232.16;;;9.84;84.51
75991;BME280;64673;52.276;10.560;2023-05-07T00:34:40;101241.88;;;9.69;85.06
75991;BME280;64673;52.276;10.560;2023-05-07T00:37:06;101245.22;;;9.76;84.12
75991;BME280;64673;52.276;10.560;2023-05-07T00:39:34;101234.94;;;9.73;84.55
75991;BME280;64673;52.276;10.560;2023-05-07T00:42:00;101228.91;;;9.66;83.84
75991;BME280;64673;52.276;10.560;2023-05-07T00:44:26;101226.72;;;9.63;84.22
75991;BME280;64673;52.276;10.560;2023-05-07T00:46:51;101231.06;;;9.64;84.43
75991;BME280;64673;52.276;10.560;2023-05-07T00:49:18;101220.09;;;9.53;84.63
75991;BME280;64673;52.276;10.560;2023-05-07T00:51:43;101223.13;;;9.57;84.42
75991;BME280;64673;52.276;10.560;2023-05-07T00:54:10;101214.06;;;9.46;84.18
75991;BME280;64673;52.276;10.560;2023-05-07T00:56:36;101213.66;;;9.54;84.85
75991;BME280;64673;52.276;10.560;2023-05-07T00:59:02;101212.03;;;9.53;85.27
75991;BME280;64673;52.276;10.560;2023-05-07T01:01:28;101212.03;;;9.37;84.80
75991;BME280;64673;52.276;10.560;2023-05-07T01:03:53;101213.00;;;9.47;84.60
75991;BME280;64673;52.276;10.560;2023-05-07T01:06:20;101213.25;;;9.46;84.33
75991;BME280;64673;52.276;10.560;2023-05-07T01:08:47;101217.81;;;9.45;84.80
75991;BME280;64673;52.276;10.560;2023-05-07T01:11:13;101218.16;;;9.49;84.61
75991;BME280;64673;52.276;10.560;2023-05-07T01:13:40;101210.31;;;9.47;83.95
75991;BME280;64673;52.276;10.560;2023-05-07T01:16:06;101222.72;;;9.48;84.05
75991;BME280;64673;52.276;10.560;2023-05-07T01:18:31;101226.31;;;9.37;84.48
75991;BME280;64673;52.276;10.560;2023-05-07T01:21:01;101229.91;;;9.43;83.93
75991;BME280;64673;52.276;10.560;2023-05-07T01:23:29;101229.09;;;9.42;84.43
75991;BME280;64673;52.276;10.560;2023-05-07T01:25:55;101231.28;;;9.45;84.22
75991;BME280;64673;52.276;10.560;2023-05-07T01:28:21;101227.06;;;9.49;83.70
75991;BME280;64673;52.276;10.560;2023-05-07T01:30:51;101221.56;;;9.44;84.19
75991;BME280;64673;52.276;10.560;2023-05-07T01:33:20;101220.28;;;9.30;84.87
75991;BME280;64673;52.276;10.560;2023-05-07T01:35:49;101214.66;;;9.32;84.42
75991;BME280;64673;52.276;10.560;2023-05-07T01:38:16;101214.56;;;9.43;83.60
75991;BME280;64673;52.276;10.560;2023-05-07T01:40:41;101222.56;;;9.38;84.43
75991;BME280;64673;52.276;10.560;2023-05-07T01:43:07;101213.44;;;9.39;83.81
75991;BME280;64673;52.276;10.560;2023-05-07T01:45:34;101225.50;;;9.37;84.46
75991;BME280;64673;52.276;10.560;2023-05-07T01:48:01;101223.72;;;9.42;83.58
75991;BME280;64673;52.276;10.560;2023-05-07T01:50:27;101216.69;;;9.41;84.07
75991;BME280;64673;52.276;10.560;2023-05-07T01:52:53;101224.13;;;9.51;83.76
75991;BME280;64673;52.276;10.560;2023-05-07T01:55:18;101228.84;;;9.44;83.94
75991;BME280;64673;52.276;10.560;2023-05-07T01:57:44;101235.38;;;9.31;84.55
75991;BME280;64673;52.276;10.560;2023-05-07T02:00:10;101230.56;;;9.33;83.90
75991;BME280;64673;52.276;10.560;2023-05-07T02:02:35;101235.28;;;9.26;84.23
75991;BME280;64673;52.276;10.560;2023-05-07T02:05:01;101229.72;;;9.33;84.23
75991;BME280;64673;52.276;10.560;2023-05-07T02:07:27;101233.50;;;9.32;84.39
75991;BME280;64673;52.276;10.560;2023-05-07T02:09:53;101235.94;;;9.16;85.39
75991;BME280;64673;52.276;10.560;2023-05-07T02:12:18;101247.22;;;9.30;84.10
75991;BME280;64673;52.276;10.560;2023-05-07T02:14:44;101244.19;;;9.43;83.72
75991;BME280;64673;52.276;10.560;2023-05-07T02:17:09;101244.09;;;9.38;84.61
75991;BME280;64673;52.276;10.560;2023-05-07T02:19:35;101239.72;;;9.32;85.42
75991;BME280;64673;52.276;10.560;2023-05-07T02:22:00;101238.72;;;9.38;84.41
75991;BME280;64673;52.276;10.560;2023-05-07T02:24:25;101233.25;;;9.33;85.58
75991;BME280;64673;52.276;10.560;2023-05-07T02:26:51;101238.72;;;9.38;85.02
75991;BME280;64673;52.276;10.560;2023-05-07T02:29:16;101222.06;;;9.08;86.22
75991;BME280;64673;52.276;10.560;2023-05-07T02:31:41;101232.91;;;9.13;85.80
75991;BME280;64673;52.276;10.560;2023-05-07T02:34:06;101234.47;;;9.09;85.97
75991;BME280;64673;52.276;10.560;2023-05-07T02:36:32;101237.06;;;9.04;86.36
75991;BME280;64673;52.276;10.560;2023-05-07T02:38:57;101240.03;;;9.19;85.40
75991;BME280;64673;52.276;10.560;2023-05-07T02:41:22;101240.84;;;9.20;85.49
75991;BME280;64673;52.276;10.560;2023-05-07T02:43:48;101240.03;;;9.19;85.74
75991;BME280;64673;52.276;10.560;2023-05-07T02:46:13;101245.56;;;9.29;85.42
75991;BME280;64673;52.276;10.560;2023-05-07T02:48:38;101248.84;;;9.31;85.51
75991;BME280;64673;52.276;10.560;2023-05-07T02:51:04;101247.34;;;9.24;84.89
75991;BME280;64673;52.276;10.560;2023-05-07T02:53:30;101249.41;;;9.16;84.96
75991;BME280;64673;52.276;10.560;2023-05-07T02:55:56;101258.69;;;9.09;85.92
75991;BME280;64673;52.276;10.560;2023-05-07T02:58:22;101261.56;;;9.19;85.16
75991;BME280;64673;52.276;10.560;2023-05-07T03:00:48;101257.72;;;9.15;85.51
75991;BME280;64673;52.276;10.560;2023-05-07T03:03:14;101253.47;;;9.19;85.00
75991;BME280;64673;52.276;10.560;2023-05-07T03:05:39;101254.38;;;9.08;84.29
75991;BME280;64673;52.276;10.560;2023-05-07T03:08:05;101261.16;;;9.10;85.08
75991;BME280;64673;52.276;10.560;2023-05-07T03:10:30;101261.69;;;9.12;84.95
75991;BME280;64673;52.276;10.560;2023-05-07T03:12:56;101253.56;;;9.24;84.75
75991;BME280;64673;52.276;10.560;2023-05-07T03:15:21;101251.91;;;9.23;83.69
75991;BME280;64673;52.276;10.560;2023-05-07T03:17:47;101241.97;;;9.24;84.33
75991;BME280;64673;52.276;10.560;2023-05-07T03:20:13;101242.47;;;9.21;84.08
75991;BME280;64673;52.276;10.560;2023-05-07T03:22:38;101235.22;;;9.21;83.41
75991;BME280;64673;52.276;10.560;2023-05-07T03:25:04;101234.59;;;9.02;85.12
75991;BME280;64673;52.276;10.560;2023-05-07T03:27:30;101225.81;;;9.07;85.30
75991;BME280;64673;52.276;10.560;2023-05-07T03:29:55;101229.91;;;9.09;85.13
75991;BME280;64673;52.276;10.560;2023-05-07T03:32:20;101232.66;;;8.98;85.47
75991;BME280;64673;52.276;10.560;2023-05-07T03:34:46;101233.78;;;9.02;85.07
75991;BME280;64673;52.276;10.560;2023-05-07T03:37:11;101228.91;;;8.99;85.06
75991;BME280;64673;52.276;10.560;2023-05-07T03:39:36;101234.78;;;8.96;85.46
75991;BME280;64673;52.276;10.560;2023-05-07T03:42:02;101230.63;;;9.05;84.36
75991;BME280;64673;52.276;10.560;2023-05-07T03:44:28;101233.63;;;8.92;85.70
75991;BME280;64673;52.276;10.560;2023-05-07T03:46:53;101236.22;;;8.87;84.37
75991;BME280;64673;52.276;10.560;2023-05-07T03:49:18;101240.88;;;8.91;84.94
75991;BME280;64673;52.276;10.560;2023-05-07T03:51:44;101235.53;;;9.08;84.30
75991;BME280;64673;52.276;10.560;2023-05-07T03:54:09;101243.56;;;8.91;83.84
75991;BME280;64673;52.276;10.560;2023-05-07T03:56:34;101248.06;;;9.02;82.69
75991;BME280;64673;52.276;10.560;2023-05-07T03:59:00;101243.72;;;8.85;83.19
75991;BME280;64673;52.276;10.560;2023-05-07T04:01:26;101246.00;;;8.93;82.74
75991;BME280;64673;52.276;10.560;2023-05-07T04:03:51;101244.28;;;8.87;82.71
75991;BME280;64673;52.276;10.560;2023-05-07T04:06:17;101248.13;;;8.91;82.44
75991;BME280;64673;52.276;10.560;2023-05-07T04:08:43;101244.38;;;8.92;82.27
75991;BME280;64673;52.276;10.560;2023-05-07T04:11:08;101252.44;;;8.92;81.71
75991;BME280;64673;52.276;10.560;2023-05-07T04:13:33;101244.19;;;8.81;82.75
75991;BME280;64673;52.276;10.560;2023-05-07T04:16:01;101249.56;;;8.81;82.77
75991;BME280;64673;52.276;10.560;2023-05-07T04:18:26;101253.41;;;8.86;82.42
75991;BME280;64673;52.276;10.560;2023-05-07T04:20:52;101249.84;;;8.97;81.51
75991;BME280;64673;52.276;10.560;2023-05-07T04:23:17;101253.22;;;9.04;81.48
75991;BME280;64673;52.276;10.560;2023-05-07T04:25:42;101260.84;;;8.95;81.22
75991;BME280;64673;52.276;10.560;2023-05-07T04:28:08;101263.72;;;8.89;81.99
75991;BME280;64673;52.276;10.560;2023-05-07T04:30:33;101259.88;;;9.01;81.36
75991;BME280;64673;52.276;10.560;2023-05-07T04:32:58;101270.63;;;8.85;81.49
75991;BME280;64673;52.276;10.560;2023-05-07T04:35:24;101270.78;;;8.78;81.87
75991;BME280;64673;52.276;10.560;2023-05-07T04:37:49;101264.41;;;8.84;81.57
75991;BME280;64673;52.276;10.560;2023-05-07T04:40:14;101268.75;;;9.02;81.22
75991;BME280;64673;52.276;10.560;2023-05-07T04:42:41;101264.19;;;9.02;80.92
75991;BME280;64673;52.276;10.560;2023-05-07T04:45:06;101274.88;;;8.97;81.15
75991;BME280;64673;52.276;10.560;2023-05-07T04:47:33;101279.06;;;9.05;81.15
75991;BME280;64673;52.276;10.560;2023-05-07T04:49:59;101281.03;;;9.09;80.67
75991;BME280;64673;52.276;10.560;2023-05-07T04:52:24;101281.38;;;8.85;81.56
75991;BME280;64673;52.276;10.560;2023-05-07T04:54:50;101287.75;;;8.95;81.78
75991;BME280;64673;52.276;10.560;2023-05-07T04:57:15;101289.94;;;9.10;82.44
75991;BME280;64673;52.276;10.560;2023-05-07T04:59:42;101287.38;;;9.03;80.81
75991;BME280;64673;52.276;10.560;2023-05-07T05:02:08;101297.13;;;9.21;80.34
75991;BME280;64673;52.276;10.560;2023-05-07T05:04:33;101301.34;;;9.34;80.27
75991;BME280;64673;52.276;10.560;2023-05-07T05:06:58;101297.84;;;9.33;79.64
75991;BME280;64673;52.276;10.560;2023-05-07T05:09:24;101300.16;;;9.41;79.27
75991;BME280;64673;52.276;10.560;2023-05-07T05:11:50;101303.91;;;9.40;79.37
75991;BME280;64673;52.276;10.560;2023-05-07T05:14:15;101312.75;;;9.52;79.25
75991;BME280;64673;52.276;10.560;2023-05-07T05:16:40;101303.56;;;9.53;78.16
75991;BME280;64673;52.276;10.560;2023-05-07T05:19:05;101313.03;;;9.39;79.07
75991;BME280;64673;52.276;10.560;2023-05-07T05:21:31;101303.41;;;9.27;79.62
75991;BME280;64673;52.276;10.560;2023-05-07T05:23:57;101316.56;;;9.40;79.35
75991;BME280;64673;52.276;10.560;2023-05-07T05:26:22;101304.44;;;9.26;79.93
75991;BME280;64673;52.276;10.560;2023-05-07T05:28:47;101303.31;;;9.22;79.70
75991;BME280;64673;52.276;10.560;2023-05-07T05:31:13;101314.75;;;9.29;79.55
75991;BME280;64673;52.276;10.560;2023-05-07T05:33:39;101302.69;;;9.31;79.75
75991;BME280;64673;52.276;10.560;2023-05-07T05:36:05;101306.44;;;9.30;79.47
75991;BME280;64673;52.276;10.560;2023-05-07T05:38:31;101303.22;;;9.33;79.70
75991;BME280;64673;52.276;10.560;2023-05-07T05:40:56;101310.41;;;9.28;79.88
75991;BME280;64673;52.276;10.560;2023-05-07T05:43:21;101309.69;;;9.32;79.98
75991;BME280;64673;52.276;10.560;2023-05-07T05:45:47;101317.97;;;9.42;79.50
75991;BME280;64673;52.276;10.560;2023-05-07T05:48:12;101318.44;;;9.39;79.78
75991;BME280;64673;52.276;10.560;2023-05-07T05:50:37;101322.13;;;9.50;79.71
75991;BME280;64673;52.276;10.560;2023-05-07T05:53:02;101319.66;;;9.48;79.92
75991;BME280;64673;52.276;10.560;2023-05-07T05:55:28;101328.91;;;9.52;79.40
75991;BME280;64673;52.276;10.560;2023-05-07T05:57:54;101337.13;;;9.46;79.11
75991;BME280;64673;52.276;10.560;2023-05-07T06:00:19;101332.88;;;9.50;79.63
75991;BME280;64673;52.276;10.560;2023-05-07T06:02:47;101330.03;;;9.57;80.17
75991;BME280;64673;52.276;10.560;2023-05-07T06:05:13;101328.72;;;9.59;79.79
75991;BME280;64673;52.276;10.560;2023-05-07T06:07:38;101322.41;;;9.53;79.59
75991;BME280;64673;52.276;10.560;2023-05-07T06:10:04;101317.13;;;9.59;79.15
75991;BME280;64673;52.276;10.560;2023-05-07T06:12:29;101326.53;;;9.73;79.16
75991;BME280;64673;52.276;10.560;2023-05-07T06:14:55;101333.88;;;9.61;79.10
75991;BME280;64673;52.276;10.560;2023-05-07T06:17:20;101333.78;;;9.55;78.54
75991;BME280;64673;52.276;10.560;2023-05-07T06:19:45;101328.00;;;9.64;78.49
75991;BME280;64673;52.276;10.560;2023-05-07T06:22:11;101338.38;;;9.72;77.96
75991;BME280;64673;52.276;10.560;2023-05-07T06:24:36;101338.28;;;9.67;78.19
75991;BME280;64673;52.276;10.560;2023-05-07T06:27:01;101348.22;;;9.66;78.62
75991;BME280;64673;52.276;10.560;2023-05-07T06:29:27;101344.47;;;9.50;78.64
75991;BME280;64673;52.276;10.560;2023-05-07T06:31:55;101345.88;;;9.70;78.31
75991;BME280;64673;52.276;10.560;2023-05-07T06:34:20;101340.91;;;9.62;78.42
75991;BME280;64673;52.276;10.560;2023-05-07T06:36:46;101330.78;;;9.69;78.21
75991;BME280;64673;52.276;10.560;2023-05-07T06:39:11;101328.63;;;9.87;77.09
75991;BME280;64673;52.276;10.560;2023-05-07T06:41:37;101336.63;;;9.99;77.61
75991;BME280;64673;52.276;10.560;2023-05-07T06:44:02;101339.22;;;10.11;77.03
75991;BME280;64673;52.276;10.560;2023-05-07T06:46:28;101331.97;;;10.11;77.18
75991;BME280;64673;52.276;10.560;2023-05-07T06:48:54;101336.00;;;9.92;76.69
75991;BME280;64673;52.276;10.560;2023-05-07T06:51:19;101341.53;;;10.02;76.36
75991;BME280;64673;52.276;10.560;2023-05-07T06:53:45;101336.22;;;10.07;75.76
75991;BME280;64673;52.276;10.560;2023-05-07T06:56:10;101334.75;;;10.16;75.82
75991;BME280;64673;52.276;10.560;2023-05-07T06:58:36;101334.19;;;10.14;75.79
75991;BME280;64673;52.276;10.560;2023-05-07T07:01:02;101336.72;;;10.21;76.05
75991;BME280;64673;52.276;10.560;2023-05-07T07:03:27;101338.25;;;10.00;75.93
75991;BME280;64673;52.276;10.560;2023-05-07T07:05:53;101347.25;;;10.22;76.74
75991;BME280;64673;52.276;10.560;2023-05-07T07:08:19;101354.78;;;10.20;75.54
75991;BME280;64673;52.276;10.560;2023-05-07T07:10:46;101342.03;;;9.99;76.49
75991;BME280;64673;52.276;10.560;2023-05-07T07:13:11;101355.59;;;10.04;76.63
75991;BME280;64673;52.276;10.560;2023-05-07T07:15:37;101345.38;;;10.06;76.30
75991;BME280;64673;52.276;10.560;2023-05-07T07:18:02;101347.25;;;10.22;77.18
75991;BME280;64673;52.276;10.560;2023-05-07T07:20:27;101354.44;;;10.17;77.17
75991;BME280;64673;52.276;10.560;2023-05-07T07:22:53;101359.50;;;10.13;76.39
75991;BME280;64673;52.276;10.560;2023-05-07T07:25:18;101363.91;;;10.19;76.46
75991;BME280;64673;52.276;10.560;2023-05-07T07:27:44;101357.72;;;10.02;76.73
75991;BME280;64673;52.276;10.560;2023-05-07T07:30:10;101368.25;;;10.20;76.52
75991;BME280;64673;52.276;10.560;2023-05-07T07:32:35;101366.66;;;10.08;77.67
75991;BME280;64673;52.276;10.560;2023-05-07T07:35:00;101359.34;;;9.86;77.34
75991;BME280;64673;52.276;10.560;2023-05-07T07:37:26;101360.72;;;9.89;77.59
75991;BME280;64673;52.276;10.560;2023-05-07T07:39:52;101373.41;;;10.05;77.64
75991;BME280;64673;52.276;10.560;2023-05-07T07:42:17;101370.59;;;10.00;77.51
75991;BME280;64673;52.276;10.560;2023-05-07T07:44:43;101378.13;;;10.15;77.73
75991;BME280;64673;52.276;10.560;2023-05-07T07:47:08;101366.19;;;10.11;77.40
75991;BME280;64673;52.276;10.560;2023-05-07T07:49:34;101369.63;;;10.06;76.61
75991;BME280;64673;52.276;10.560;2023-05-07T07:52:00;101373.22;;;9.95;77.77
75991;BME280;64673;52.276;10.560;2023-05-07T07:54:26;101378.03;;;10.10;77.08
75991;BME280;64673;52.276;10.560;2023-05-07T07:56:51;101372.09;;;10.24;76.74
75991;BME280;64673;52.276;10.560;2023-05-07T07:59:17;101378.69;;;10.34;77.25
75991;BME280;64673;52.276;10.560;2023-05-07T08:01:44;101378.84;;;10.44;77.74
75991;BME280;64673;52.276;10.560;2023-05-07T08:04:10;101384.41;;;10.37;77.34
75991;BME280;64673;52.276;10.560;2023-05-07T08:06:35;101381.81;;;10.64;76.11
75991;BME280;64673;52.276;10.560;2023-05-07T08:09:00;101379.00;;;10.76;74.56
75991;BME280;64673;52.276;10.560;2023-05-07T08:11:26;101373.09;;;11.00;76.20
75991;BME280;64673;52.276;10.560;2023-05-07T08:13:52;101378.44;;;10.95;74.27
75991;BME280;64673;52.276;10.560;2023-05-07T08:16:17;101373.78;;;10.69;75.60
75991;BME280;64673;52.276;10.560;2023-05-07T08:18:43;101387.59;;;10.94;73.88
75991;BME280;64673;52.276;10.560;2023-05-07T08:21:08;101378.44;;;10.95;74.69
75991;BME280;64673;52.276;10.560;2023-05-07T08:23:34;101370.09;;;10.97;73.63
75991;BME280;64673;52.276;10.560;2023-05-07T08:26:00;101380.25;;;11.12;73.35
75991;BME280;64673;52.276;10.560;2023-05-07T08:28:25;101379.94;;;10.86;73.73
75991;BME280;64673;52.276;10.560;2023-05-07T08:30:51;101375.69;;;10.90;74.03
75991;BME280;64673;52.276;10.560;2023-05-07T08:33:16;101381.25;;;11.06;73.53
75991;BME280;64673;52.276;10.560;2023-05-07T08:35:41;101385.13;;;11.15;72.85
75991;BME280;64673;52.276;10.560;2023-05-07T08:38:07;101389.22;;;10.95;72.52
75991;BME280;64673;52.276;10.560;2023-05-07T08:40:37;101381.72;;;11.24;72.52
75991;BME280;64673;52.276;10.560;2023-05-07T08:43:02;101387.94;;;11.25;72.32
75991;BME280;64673;52.276;10.560;2023-05-07T08:45:30;101384.25;;;11.31;72.48
75991;BME280;64673;52.276;10.560;2023-05-07T08:48:08;101387.22;;;11.34;71.29
75991;BME280;64673;52.276;10.560;2023-05-07T08:50:37;101399.06;;;11.55;73.07
75991;BME280;64673;52.276;10.560;2023-05-07T08:53:03;101400.69;;;11.56;71.59
75991;BME280;64673;52.276;10.560;2023-05-07T08:55:29;101400.59;;;11.73;71.91
75991;BME280;64673;52.276;10.560;2023-05-07T08:57:55;101398.75;;;11.79;70.89
75991;BME280;64673;52.276;10.560;2023-05-07T09:00:20;101397.53;;;11.64;70.97
75991;BME280;64673;52.276;10.560;2023-05-07T09:02:46;101391.59;;;11.67;71.08
75991;BME280;64673;52.276;10.560;2023-05-07T09:05:11;101402.22;;;11.47;71.89
75991;BME280;64673;52.276;10.560;2023-05-07T09:07:37;101384.00;;;11.32;72.50
75991;BME280;64673;52.276;10.560;2023-05-07T09:10:03;101396.06;;;11.52;71.99
75991;BME280;64673;52.276;10.560;2023-05-07T09:12:29;101401.16;;;11.48;72.71
75991;BME280;64673;52.276;10.560;2023-05-07T09:14:55;101395.78;;;11.26;72.29
75991;BME280;64673;52.276;10.560;2023-05-07T09:17:20;101400.00;;;11.44;72.82
75991;BME280;64673;52.276;10.560;2023-05-07T09:19:45;101403.63;;;11.55;74.12
75991;BME280;64673;52.276;10.560;2023-05-07T09:22:11;101398.19;;;11.77;71.39
75991;BME280;64673;52.276;10.560;2023-05-07T09:24:37;101402.38;;;11.62;70.17
75991;BME280;64673;52.276;10.560;2023-05-07T09:27:07;101392.09;;;11.86;72.41
75991;BME280;64673;52.276;10.560;2023-05-07T09:29:34;101403.19;;;11.90;70.61
75991;BME280;64673;52.276;10.560;2023-05-07T09:32:01;101398.34;;;11.92;71.72
75991;BME280;64673;52.276;10.560;2023-05-07T09:34:29;101399.94;;;12.25;71.71
75991;BME280;64673;52.276;10.560;2023-05-07T09:36:54;101399.75;;;12.36;69.55
75991;BME280;64673;52.276;10.560;2023-05-07T09:39:20;101407.38;;;12.44;67.47
75991;BME280;64673;52.276;10.560;2023-05-07T09:41:46;101405.31;;;12.62;67.39
75991;BME280;64673;52.276;10.560;2023-05-07T09:44:15;101408.81;;;12.57;69.63
75991;BME280;64673;52.276;10.560;2023-05-07T09:46:43;101412.84;;;12.55;68.27
75991;BME280;64673;52.276;10.560;2023-05-07T09:49:18;101406.50;;;12.34;70.47
75991;BME280;64673;52.276;10.560;2023-05-07T09:51:50;101411.47;;;12.10;69.55
75991;BME280;64673;52.276;10.560;2023-05-07T09:54:17;101406.34;;;12.14;69.19
75991;BME280;64673;52.276;10.560;2023-05-07T09:56:43;101412.66;;;12.24;70.47
75991;BME280;64673;52.276;10.560;2023-05-07T09:59:14;101418.84;;;12.62;69.21
75991;BME280;64673;52.276;10.560;2023-05-07T10:01:42;101411.88;;;12.71;67.93
75991;BME280;64673;52.276;10.560;2023-05-07T10:04:07;101413.47;;;12.72;68.65
75991;BME280;64673;52.276;10.560;2023-05-07T10:06:35;101417.69;;;13.05;67.48
75991;BME280;64673;52.276;10.560;2023-05-07T10:09:01;101399.69;;;13.31;66.16
75991;BME280;64673;52.276;10.560;2023-05-07T10:11:27;101393.47;;;13.50;65.64
75991;BME280;64673;52.276;10.560;2023-05-07T10:13:53;101405.66;;;13.33;66.52
75991;BME280;64673;52.276;10.560;2023-05-07T10:16:20;101406.22;;;13.35;67.25
75991;BME280;64673;52.276;10.560;2023-05-07T10:18:47;101401.84;;;13.29;66.67
75991;BME280;64673;52.276;10.560;2023-05-07T10:21:17;101404.19;;;13.10;68.21
75991;BME280;64673;52.276;10.560;2023-05-07T10:26:35;101415.03;;;12.58;69.54
75991;BME280;64673;52.276;10.560;2023-05-07T10:29:33;101422.63;;;12.61;69.23
75991;BME280;64673;52.276;10.560;2023-05-07T10:34:36;101414.66;;;12.39;70.32
75991;BME280;64673;52.276;10.560;2023-05-07T10:37:03;101414.72;;;12.12;69.91
75991;BME280;64673;52.276;10.560;2023-05-07T10:39:29;101417.81;;;11.94;70.38
75991;BME280;64673;52.276;10.560;2023-05-07T10:41:55;101422.09;;;11.90;70.42
75991;BME280;64673;52.276;10.560;2023-05-07T10:44:27;101420.38;;;12.05;70.43
75991;BME280;64673;52.276;10.560;2023-05-07T10:47:15;101424.13;;;12.04;69.33
75991;BME280;64673;52.276;10.560;2023-05-07T10:54:45;101417.94;;;12.09;69.90
75991;BME280;64673;52.276;10.560;2023-05-07T10:57:35;101412.50;;;12.41;68.08
75991;BME280;64673;52.276;10.560;2023-05-07T11:00:02;101411.94;;;12.86;67.80
75991;BME280;64673;52.276;10.560;2023-05-07T11:05:21;101430.16;;;13.01;67.53
75991;BME280;64673;52.276;10.560;2023-05-07T11:08:04;101430.69;;;12.98;66.89
75991;BME280;64673;52.276;10.560;2023-05-07T11:13:14;101433.63;;;12.91;67.71
75991;BME280;64673;52.276;10.560;2023-05-07T11:15:44;101427.09;;;12.87;66.80
75991;BME280;64673;52.276;10.560;2023-05-07T11:18:12;101428.91;;;13.18;67.31
75991;BME280;64673;52.276;10.560;2023-05-07T11:26:07;101428.38;;;13.22;66.39
75991;BME280;64673;52.276;10.560;2023-05-07T11:28:37;101417.28;;;13.28;67.37
75991;BME280;64673;52.276;10.560;2023-05-07T11:31:03;101427.59;;;13.31;67.44
75991;BME280;64673;52.276;10.560;2023-05-07T11:33:32;101424.09;;;13.56;66.88
75991;BME280;64673;52.276;10.560;2023-05-07T11:35:58;101434.38;;;13.39;65.21
75991;BME280;64673;52.276;10.560;2023-05-07T11:38:24;101418.63;;;13.21;65.92
75991;BME280;64673;52.276;10.560;2023-05-07T11:40:50;101428.94;;;13.29;65.48
75991;BME280;64673;52.276;10.560;2023-05-07T11:43:16;101435.34;;;13.12;67.61
75991;BME280;64673;52.276;10.560;2023-05-07T11:45:42;101431.19;;;12.95;65.68
75991;BME280;64673;52.276;10.560;2023-05-07T11:48:07;101430.53;;;12.72;68.13
75991;BME280;64673;52.276;10.560;2023-05-07T11:50:32;101430.63;;;12.88;68.06
75991;BME280;64673;52.276;10.560;2023-05-07T11:52:58;101426.53;;;12.80;67.96
75991;BME280;64673;52.276;10.560;2023-05-07T11:55:24;101433.66;;;12.96;67.23
75991;BME280;64673;52.276;10.560;2023-05-07T11:57:50;101441.47;;;12.88;67.76
75991;BME280;64673;52.276;10.560;2023-05-07T12:00:15;101433.06;;;12.89;68.22
75991;BME280;64673;52.276;10.560;2023-05-07T12:02:41;101438.41;;;12.74;68.70
75991;BME280;64673;52.276;10.560;2023-05-07T12:05:07;101434.75;;;13.00;67.74
75991;BME280;64673;52.276;10.560;2023-05-07T12:07:33;101440.56;;;13.24;68.12
75991;BME280;64673;52.276;10.560;2023-05-07T12:09:59;101433.13;;;13.04;67.87
75991;BME280;64673;52.276;10.560;2023-05-07T12:12:24;101444.94;;;12.83;67.82
75991;BME280;64673;52.276;10.560;2023-05-07T12:14:52;101444.78;;;13.05;68.87
75991;BME280;64673;52.276;10.560;2023-05-07T12:17:17;101449.97;;;13.11;67.45
75991;BME280;64673;52.276;10.560;2023-05-07T12:19:43;101438.41;;;12.74;67.99
75991;BME280;64673;52.276;10.560;2023-05-07T12:22:10;101446.06;;;12.87;68.47
75991;BME280;64673;52.276;10.560;2023-05-07T12:24:46;101444.78;;;13.05;67.45
75991;BME280;64673;52.276;10.560;2023-05-07T12:27:13;101451.09;;;12.68;68.10
75991;BME280;64673;52.276;10.560;2023-05-07T12:29:38;101448.91;;;12.60;69.20
75991;BME280;64673;52.276;10.560;2023-05-07T12:32:06;101452.19;;;12.72;67.85
75991;BME280;64673;52.276;10.560;2023-05-07T12:34:32;101450.28;;;12.68;67.84
75991;BME280;64673;52.276;10.560;2023-05-07T12:36:57;101450.16;;;12.48;68.58
75991;BME280;64673;52.276;10.560;2023-05-07T12:39:26;101447.38;;;12.79;68.26
75991;BME280;64673;52.276;10.560;2023-05-07T12:41:56;101454.63;;;12.74;69.47
75991;BME280;64673;52.276;10.560;2023-05-07T12:44:22;101458.28;;;12.95;68.01
75991;BME280;64673;52.276;10.560;2023-05-07T12:46:48;101457.69;;;12.88;67.09
75991;BME280;64673;52.276;10.560;2023-05-07T12:49:14;101459.19;;;13.10;67.17
75991;BME280;64673;52.276;10.560;2023-05-07T12:51:39;101461.19;;;13.35;66.78
75991;BME280;64673;52.276;10.560;2023-05-07T12:54:05;101455.56;;;13.52;65.86
75991;BME280;64673;52.276;10.560;2023-05-07T12:56:31;101449.56;;;13.35;66.91
75991;BME280;64673;52.276;10.560;2023-05-07T12:58:59;101449.88;;;13.69;66.06
75991;BME280;64673;52.276;10.560;2023-05-07T13:01:29;101449.63;;;13.65;66.17